sensor_id;sensor_type;location;lat;lon;timestamp;temperature;humidity
2749;DHT22;1382;52.142;11.618;2023-03-14T00:00:06;16.10;60.40
2749;DHT22;1382;52.142;11.618;2023-03-14T00:02:34;16.10;60.50
2749;DHT22;1382;52.142;11.618;2023-03-14T00:05:01;16.20;60.60
2749;DHT22;1382;52.142;11.618;2023-03-14T00:07:28;16.00;60.30
2749;DHT22;1382;52.142;11.618;2023-03-14T00:09:55;16.00;60.30
2749;DHT22;1382;52.142;11.618;2023-03-14T00:12:22;16.00;60.40
2749;DHT22;1382;52.142;11.618;2023-03-14T00:14:49;16.10;60.40
2749;DHT22;1382;52.142;11.618;2023-03-14T00:17:15;16.00;60.30
2749;DHT22;1382;52.142;11.618;2023-03-14T00:19:43;16.00;60.30
2749;DHT22;1382;52.142;11.618;2023-03-14T00:22:10;16.00;60.30
2749;DHT22;1382;52.142;11.618;2023-03-14T00:24:37;15.90;60.30
2749;DHT22;1382;52.142;11.618;2023-03-14T00:27:03;15.90;60.30
2749;DHT22;1382;52.142;11.618;2023-03-14T00:29:30;15.90;60.30
2749;DHT22;1382;52.142;11.618;2023-03-14T00:31:57;15.90;60.30
2749;DHT22;1382;52.142;11.618;2023-03-14T00:34:26;15.90;60.30
2749;DHT22;1382;52.142;11.618;2023-03-14T00:36:55;15.90;60.30
2749;DHT22;1382;52.142;11.618;2023-03-14T00:39:22;15.80;60.30
2749;DHT22;1382;52.142;11.618;2023-03-14T00:41:49;15.80;60.30
2749;DHT22;1382;52.142;11.618;2023-03-14T00:44:16;15.80;60.30
2749;DHT22;1382;52.142;11.618;2023-03-14T00:46:42;15.80;60.30
2749;DHT22;1382;52.142;11.618;2023-03-14T00:49:09;15.80;60.30
2749;DHT22;1382;52.142;11.618;2023-03-14T00:51:36;15.80;60.30
2749;DHT22;1382;52.142;11.618;2023-03-14T00:54:04;15.80;60.30
2749;DHT22;1382;52.142;11.618;2023-03-14T00:56:31;15.70;60.10
2749;DHT22;1382;52.142;11.618;2023-03-14T00:58:58;15.80;60.30
2749;DHT22;1382;52.142;11.618;2023-03-14T01:01:24;15.70;60.20
2749;DHT22;1382;52.142;11.618;2023-03-14T01:03:53;15.70;60.10
2749;DHT22;1382;52.142;11.618;2023-03-14T01:06:23;15.70;60.20
2749;DHT22;1382;52.142;11.618;2023-03-14T01:08:51;15.70;60.10
2749;DHT22;1382;52.142;11.618;2023-03-14T01:11:21;15.70;60.30
2749;DHT22;1382;52.142;11.618;2023-03-14T01:13:48;15.70;60.30
2749;DHT22;1382;52.142;11.618;2023-03-14T01:16:17;15.60;60.20
2749;DHT22;1382;52.142;11.618;2023-03-14T01:18:45;15.60;60.20
2749;DHT22;1382;52.142;11.618;2023-03-14T01:21:14;15.70;60.30
2749;DHT22;1382;52.142;11.618;2023-03-14T01:23:42;15.60;60.10
2749;DHT22;1382;52.142;11.618;2023-03-14T01:26:09;15.60;60.00
2749;DHT22;1382;52.142;11.618;2023-03-14T01:28:37;15.60;60.00
2749;DHT22;1382;52.142;11.618;2023-03-14T01:31:05;15.60;59.90
2749;DHT22;1382;52.142;11.618;2023-03-14T01:33:32;15.50;59.80
2749;DHT22;1382;52.142;11.618;2023-03-14T01:35:59;15.60;60.00
2749;DHT22;1382;52.142;11.618;2023-03-14T01:38:25;15.60;60.00
2749;DHT22;1382;52.142;11.618;2023-03-14T01:40:52;15.50;59.90
2749;DHT22;1382;52.142;11.618;2023-03-14T01:43:19;15.70;60.00
2749;DHT22;1382;52.142;11.618;2023-03-14T01:46:17;15.50;59.90
2749;DHT22;1382;52.142;11.618;2023-03-14T01:48:48;15.60;59.70
2749;DHT22;1382;52.142;11.618;2023-03-14T01:51:18;15.50;59.80
2749;DHT22;1382;52.142;11.618;2023-03-14T01:53:46;15.50;59.90
2749;DHT22;1382;52.142;11.618;2023-03-14T01:56:16;15.50;60.00
2749;DHT22;1382;52.142;11.618;2023-03-14T01:58:46;15.50;59.80
2749;DHT22;1382;52.142;11.618;2023-03-14T02:01:16;15.50;59.70
2749;DHT22;1382;52.142;11.618;2023-03-14T02:03:48;15.60;60.60
2749;DHT22;1382;52.142;11.618;2023-03-14T02:06:17;15.60;59.90
2749;DHT22;1382;52.142;11.618;2023-03-14T02:08:45;15.50;59.80
2749;DHT22;1382;52.142;11.618;2023-03-14T02:11:12;15.50;59.70
2749;DHT22;1382;52.142;11.618;2023-03-14T02:13:39;15.50;59.50
2749;DHT22;1382;52.142;11.618;2023-03-14T02:16:06;15.50;59.40
2749;DHT22;1382;52.142;11.618;2023-03-14T02:18:35;15.50;59.50
2749;DHT22;1382;52.142;11.618;2023-03-14T02:21:07;15.60;59.40
2749;DHT22;1382;52.142;11.618;2023-03-14T02:23:43;15.50;59.10
2749;DHT22;1382;52.142;11.618;2023-03-14T02:26:17;15.40;59.00
2749;DHT22;1382;52.142;11.618;2023-03-14T02:28:48;15.40;59.30
2749;DHT22;1382;52.142;11.618;2023-03-14T02:31:16;15.40;59.00
2749;DHT22;1382;52.142;11.618;2023-03-14T02:33:42;15.40;59.10
2749;DHT22;1382;52.142;11.618;2023-03-14T02:36:11;15.40;59.10
2749;DHT22;1382;52.142;11.618;2023-03-14T02:38:45;15.40;59.00
2749;DHT22;1382;52.142;11.618;2023-03-14T02:41:13;15.50;58.90
2749;DHT22;1382;52.142;11.618;2023-03-14T02:43:39;15.30;59.00
2749;DHT22;1382;52.142;11.618;2023-03-14T02:46:10;15.30;59.00
2749;DHT22;1382;52.142;11.618;2023-03-14T02:48:40;15.30;59.00
2749;DHT22;1382;52.142;11.618;2023-03-14T02:51:08;15.30;58.90
2749;DHT22;1382;52.142;11.618;2023-03-14T02:53:36;15.30;59.30
2749;DHT22;1382;52.142;11.618;2023-03-14T02:56:04;15.30;59.10
2749;DHT22;1382;52.142;11.618;2023-03-14T02:58:31;15.30;59.10
2749;DHT22;1382;52.142;11.618;2023-03-14T03:00:58;15.30;59.30
2749;DHT22;1382;52.142;11.618;2023-03-14T03:03:27;15.40;59.40
2749;DHT22;1382;52.142;11.618;2023-03-14T03:05:55;15.30;59.10
2749;DHT22;1382;52.142;11.618;2023-03-14T03:08:23;15.30;59.20
2749;DHT22;1382;52.142;11.618;2023-03-14T03:10:51;15.20;58.90
2749;DHT22;1382;52.142;11.618;2023-03-14T03:13:18;15.30;58.90
2749;DHT22;1382;52.142;11.618;2023-03-14T03:15:45;15.40;59.00
2749;DHT22;1382;52.142;11.618;2023-03-14T03:18:13;15.20;58.80
2749;DHT22;1382;52.142;11.618;2023-03-14T03:20:41;15.40;58.90
2749;DHT22;1382;52.142;11.618;2023-03-14T03:23:12;15.10;58.60
2749;DHT22;1382;52.142;11.618;2023-03-14T03:25:39;15.10;58.50
2749;DHT22;1382;52.142;11.618;2023-03-14T03:28:06;15.30;58.70
2749;DHT22;1382;52.142;11.618;2023-03-14T03:30:36;15.30;58.60
2749;DHT22;1382;52.142;11.618;2023-03-14T03:33:04;15.20;58.40
2749;DHT22;1382;52.142;11.618;2023-03-14T03:35:32;15.20;58.20
2749;DHT22;1382;52.142;11.618;2023-03-14T03:38:00;15.10;58.10
2749;DHT22;1382;52.142;11.618;2023-03-14T03:40:27;15.10;58.00
2749;DHT22;1382;52.142;11.618;2023-03-14T03:42:55;15.10;57.90
2749;DHT22;1382;52.142;11.618;2023-03-14T03:45:22;15.10;58.00
2749;DHT22;1382;52.142;11.618;2023-03-14T03:47:48;14.90;57.50
2749;DHT22;1382;52.142;11.618;2023-03-14T03:50:16;15.10;57.80
2749;DHT22;1382;52.142;11.618;2023-03-14T03:52:46;15.00;57.80
2749;DHT22;1382;52.142;11.618;2023-03-14T03:55:16;15.00;57.60
2749;DHT22;1382;52.142;11.618;2023-03-14T03:57:45;14.90;57.70
2749;DHT22;1382;52.142;11.618;2023-03-14T04:00:13;15.00;57.80
2749;DHT22;1382;52.142;11.618;2023-03-14T04:02:40;14.90;57.90
2749;DHT22;1382;52.142;11.618;2023-03-14T04:05:08;14.90;57.70
2749;DHT22;1382;52.142;11.618;2023-03-14T04:07:35;14.60;57.50
2749;DHT22;1382;52.142;11.618;2023-03-14T04:10:02;14.80;57.70
2749;DHT22;1382;52.142;11.618;2023-03-14T04:12:31;14.80;57.80
2749;DHT22;1382;52.142;11.618;2023-03-14T04:14:58;14.80;57.80
2749;DHT22;1382;52.142;11.618;2023-03-14T04:17:25;14.90;58.00
2749;DHT22;1382;52.142;11.618;2023-03-14T04:19:52;14.70;58.20
2749;DHT22;1382;52.142;11.618;2023-03-14T04:22:19;15.00;58.30
2749;DHT22;1382;52.142;11.618;2023-03-14T04:24:46;14.90;58.30
2749;DHT22;1382;52.142;11.618;2023-03-14T04:27:14;14.90;58.60
2749;DHT22;1382;52.142;11.618;2023-03-14T04:29:42;15.00;58.50
2749;DHT22;1382;52.142;11.618;2023-03-14T04:32:09;14.90;58.40
2749;DHT22;1382;52.142;11.618;2023-03-14T04:34:36;15.00;58.50
2749;DHT22;1382;52.142;11.618;2023-03-14T04:37:04;14.90;58.40
2749;DHT22;1382;52.142;11.618;2023-03-14T04:39:31;15.10;58.50
2749;DHT22;1382;52.142;11.618;2023-03-14T04:41:58;15.00;58.40
2749;DHT22;1382;52.142;11.618;2023-03-14T04:44:25;15.00;58.70
2749;DHT22;1382;52.142;11.618;2023-03-14T04:46:54;14.90;58.50
2749;DHT22;1382;52.142;11.618;2023-03-14T04:49:21;14.90;58.60
2749;DHT22;1382;52.142;11.618;2023-03-14T04:51:49;15.10;58.70
2749;DHT22;1382;52.142;11.618;2023-03-14T04:54:16;14.80;58.50
2749;DHT22;1382;52.142;11.618;2023-03-14T04:56:43;14.90;58.30
2749;DHT22;1382;52.142;11.618;2023-03-14T04:59:10;14.90;58.30
2749;DHT22;1382;52.142;11.618;2023-03-14T05:01:38;15.10;58.50
2749;DHT22;1382;52.142;11.618;2023-03-14T05:04:06;15.00;58.30
2749;DHT22;1382;52.142;11.618;2023-03-14T05:06:33;15.10;58.50
2749;DHT22;1382;52.142;11.618;2023-03-14T05:09:00;14.90;58.20
2749;DHT22;1382;52.142;11.618;2023-03-14T05:11:28;14.90;58.10
2749;DHT22;1382;52.142;11.618;2023-03-14T05:13:55;14.90;58.30
2749;DHT22;1382;52.142;11.618;2023-03-14T05:16:22;14.90;58.30
2749;DHT22;1382;52.142;11.618;2023-03-14T05:18:50;15.10;58.30
2749;DHT22;1382;52.142;11.618;2023-03-14T05:21:18;14.90;58.10
2749;DHT22;1382;52.142;11.618;2023-03-14T05:23:53;15.10;58.00
2749;DHT22;1382;52.142;11.618;2023-03-14T05:26:20;14.90;58.00
2749;DHT22;1382;52.142;11.618;2023-03-14T05:28:47;14.70;58.20
2749;DHT22;1382;52.142;11.618;2023-03-14T05:31:14;14.90;58.30
2749;DHT22;1382;52.142;11.618;2023-03-14T05:33:41;15.10;58.30
2749;DHT22;1382;52.142;11.618;2023-03-14T05:36:08;14.90;57.90
2749;DHT22;1382;52.142;11.618;2023-03-14T05:38:37;14.90;57.90
2749;DHT22;1382;52.142;11.618;2023-03-14T05:41:04;15.10;58.00
2749;DHT22;1382;52.142;11.618;2023-03-14T05:43:31;14.90;57.90
2749;DHT22;1382;52.142;11.618;2023-03-14T05:45:58;14.90;57.70
2749;DHT22;1382;52.142;11.618;2023-03-14T05:48:25;14.90;57.70
2749;DHT22;1382;52.142;11.618;2023-03-14T05:50:55;15.10;57.90
2749;DHT22;1382;52.142;11.618;2023-03-14T05:53:21;14.90;57.90
2749;DHT22;1382;52.142;11.618;2023-03-14T05:55:52;14.90;57.90
2749;DHT22;1382;52.142;11.618;2023-03-14T05:58:21;15.10;57.80
2749;DHT22;1382;52.142;11.618;2023-03-14T06:00:49;14.90;57.40
2749;DHT22;1382;52.142;11.618;2023-03-14T06:03:18;14.90;57.70
2749;DHT22;1382;52.142;11.618;2023-03-14T06:05:52;14.90;57.80
2749;DHT22;1382;52.142;11.618;2023-03-14T06:08:19;14.90;57.60
2749;DHT22;1382;52.142;11.618;2023-03-14T06:10:46;14.90;57.70
2749;DHT22;1382;52.142;11.618;2023-03-14T06:13:14;14.90;57.80
2749;DHT22;1382;52.142;11.618;2023-03-14T06:15:41;15.10;58.00
2749;DHT22;1382;52.142;11.618;2023-03-14T06:18:08;14.90;57.90
2749;DHT22;1382;52.142;11.618;2023-03-14T06:20:36;14.90;57.90
2749;DHT22;1382;52.142;11.618;2023-03-14T06:23:03;15.10;58.00
2749;DHT22;1382;52.142;11.618;2023-03-14T06:25:29;14.90;57.80
2749;DHT22;1382;52.142;11.618;2023-03-14T06:27:56;14.80;57.70
2749;DHT22;1382;52.142;11.618;2023-03-14T06:30:24;14.90;57.90
2749;DHT22;1382;52.142;11.618;2023-03-14T06:32:51;15.10;57.90
2749;DHT22;1382;52.142;11.618;2023-03-14T06:35:18;15.00;57.80
2749;DHT22;1382;52.142;11.618;2023-03-14T06:37:45;15.00;57.60
2749;DHT22;1382;52.142;11.618;2023-03-14T06:40:12;15.10;57.60
2749;DHT22;1382;52.142;11.618;2023-03-14T06:42:39;14.90;57.60
2749;DHT22;1382;52.142;11.618;2023-03-14T06:45:07;14.90;57.60
2749;DHT22;1382;52.142;11.618;2023-03-14T06:47:35;14.90;57.50
2749;DHT22;1382;52.142;11.618;2023-03-14T06:50:03;15.10;57.50
2749;DHT22;1382;52.142;11.618;2023-03-14T06:52:30;15.00;57.70
2749;DHT22;1382;52.142;11.618;2023-03-14T06:54:56;15.10;56.90
2749;DHT22;1382;52.142;11.618;2023-03-14T06:57:23;15.10;57.10
2749;DHT22;1382;52.142;11.618;2023-03-14T06:59:50;14.90;57.00
2749;DHT22;1382;52.142;11.618;2023-03-14T07:02:17;15.10;57.40
2749;DHT22;1382;52.142;11.618;2023-03-14T07:04:45;15.00;57.10
2749;DHT22;1382;52.142;11.618;2023-03-14T07:07:12;15.20;57.50
2749;DHT22;1382;52.142;11.618;2023-03-14T07:09:39;15.00;57.70
2749;DHT22;1382;52.142;11.618;2023-03-14T07:12:06;15.00;57.90
2749;DHT22;1382;52.142;11.618;2023-03-14T07:14:33;14.90;57.60
2749;DHT22;1382;52.142;11.618;2023-03-14T07:16:59;15.00;57.60
2749;DHT22;1382;52.142;11.618;2023-03-14T07:19:26;15.10;57.20
2749;DHT22;1382;52.142;11.618;2023-03-14T07:21:54;15.00;57.10
2749;DHT22;1382;52.142;11.618;2023-03-14T07:24:21;15.00;57.40
2749;DHT22;1382;52.142;11.618;2023-03-14T07:26:48;15.00;57.10
2749;DHT22;1382;52.142;11.618;2023-03-14T07:29:14;15.10;56.80
2749;DHT22;1382;52.142;11.618;2023-03-14T07:31:41;15.10;56.70
2749;DHT22;1382;52.142;11.618;2023-03-14T07:34:08;15.00;56.40
2749;DHT22;1382;52.142;11.618;2023-03-14T07:36:35;15.10;56.40
2749;DHT22;1382;52.142;11.618;2023-03-14T07:39:03;15.30;56.00
2749;DHT22;1382;52.142;11.618;2023-03-14T07:41:30;15.30;56.80
2749;DHT22;1382;52.142;11.618;2023-03-14T07:43:57;15.30;56.90
2749;DHT22;1382;52.142;11.618;2023-03-14T07:46:24;15.20;56.80
2749;DHT22;1382;52.142;11.618;2023-03-14T07:48:51;15.20;56.70
2749;DHT22;1382;52.142;11.618;2023-03-14T07:51:18;15.50;57.90
2749;DHT22;1382;52.142;11.618;2023-03-14T07:53:44;15.40;58.10
2749;DHT22;1382;52.142;11.618;2023-03-14T07:56:12;15.40;58.10
2749;DHT22;1382;52.142;11.618;2023-03-14T07:58:39;15.50;58.60
2749;DHT22;1382;52.142;11.618;2023-03-14T08:01:06;15.60;58.10
2749;DHT22;1382;52.142;11.618;2023-03-14T08:03:33;15.70;58.80
2749;DHT22;1382;52.142;11.618;2023-03-14T08:05:59;15.70;58.10
2749;DHT22;1382;52.142;11.618;2023-03-14T08:08:26;15.80;58.20
2749;DHT22;1382;52.142;11.618;2023-03-14T08:10:53;15.90;56.70
2749;DHT22;1382;52.142;11.618;2023-03-14T08:13:21;16.00;57.00
2749;DHT22;1382;52.142;11.618;2023-03-14T08:15:48;16.10;57.60
2749;DHT22;1382;52.142;11.618;2023-03-14T08:18:14;16.10;57.50
2749;DHT22;1382;52.142;11.618;2023-03-14T08:20:41;16.20;58.80
2749;DHT22;1382;52.142;11.618;2023-03-14T08:23:08;16.30;56.20
2749;DHT22;1382;52.142;11.618;2023-03-14T08:25:35;16.30;57.30
2749;DHT22;1382;52.142;11.618;2023-03-14T08:28:01;16.40;56.20
2749;DHT22;1382;52.142;11.618;2023-03-14T08:30:30;16.40;57.10
2749;DHT22;1382;52.142;11.618;2023-03-14T08:32:57;16.50;57.10
2749;DHT22;1382;52.142;11.618;2023-03-14T08:35:23;16.60;58.00
2749;DHT22;1382;52.142;11.618;2023-03-14T08:37:50;16.70;56.60
2749;DHT22;1382;52.142;11.618;2023-03-14T08:40:18;16.70;56.90
2749;DHT22;1382;52.142;11.618;2023-03-14T08:42:46;16.80;57.00
2749;DHT22;1382;52.142;11.618;2023-03-14T08:45:14;16.90;56.80
2749;DHT22;1382;52.142;11.618;2023-03-14T08:47:43;17.00;56.50
2749;DHT22;1382;52.142;11.618;2023-03-14T08:50:11;17.00;55.60
2749;DHT22;1382;52.142;11.618;2023-03-14T08:52:42;17.00;55.80
2749;DHT22;1382;52.142;11.618;2023-03-14T08:55:09;17.10;56.20
2749;DHT22;1382;52.142;11.618;2023-03-14T08:57:36;17.20;55.20
2749;DHT22;1382;52.142;11.618;2023-03-14T09:00:04;17.20;54.80
2749;DHT22;1382;52.142;11.618;2023-03-14T09:02:31;17.30;55.90
2749;DHT22;1382;52.142;11.618;2023-03-14T09:04:59;17.30;55.50
2749;DHT22;1382;52.142;11.618;2023-03-14T09:07:26;17.40;53.60
2749;DHT22;1382;52.142;11.618;2023-03-14T09:09:52;17.40;55.50
2749;DHT22;1382;52.142;11.618;2023-03-14T09:12:19;17.40;54.50
2749;DHT22;1382;52.142;11.618;2023-03-14T09:14:46;17.40;54.00
2749;DHT22;1382;52.142;11.618;2023-03-14T09:17:13;17.50;55.20
2749;DHT22;1382;52.142;11.618;2023-03-14T09:19:39;17.50;53.80
2749;DHT22;1382;52.142;11.618;2023-03-14T09:22:07;17.50;54.50
2749;DHT22;1382;52.142;11.618;2023-03-14T09:24:34;17.50;53.80
2749;DHT22;1382;52.142;11.618;2023-03-14T09:27:00;17.50;53.70
2749;DHT22;1382;52.142;11.618;2023-03-14T09:29:27;17.60;53.80
2749;DHT22;1382;52.142;11.618;2023-03-14T09:31:54;17.60;53.90
2749;DHT22;1382;52.142;11.618;2023-03-14T09:34:21;17.70;54.50
2749;DHT22;1382;52.142;11.618;2023-03-14T09:36:47;17.70;53.50
2749;DHT22;1382;52.142;11.618;2023-03-14T09:39:15;17.70;54.40
2749;DHT22;1382;52.142;11.618;2023-03-14T09:41:44;17.80;52.80
2749;DHT22;1382;52.142;11.618;2023-03-14T09:44:15;17.80;52.50
2749;DHT22;1382;52.142;11.618;2023-03-14T09:46:45;17.80;54.60
2749;DHT22;1382;52.142;11.618;2023-03-14T09:49:19;17.80;54.50
2749;DHT22;1382;52.142;11.618;2023-03-14T09:51:47;17.90;54.70
2749;DHT22;1382;52.142;11.618;2023-03-14T09:54:27;17.90;53.80
2749;DHT22;1382;52.142;11.618;2023-03-14T09:56:55;18.00;52.90
2749;DHT22;1382;52.142;11.618;2023-03-14T09:59:22;18.00;54.00
2749;DHT22;1382;52.142;11.618;2023-03-14T10:01:49;18.00;54.40
2749;DHT22;1382;52.142;11.618;2023-03-14T10:04:21;18.00;54.00
2749;DHT22;1382;52.142;11.618;2023-03-14T10:06:48;18.00;54.00
2749;DHT22;1382;52.142;11.618;2023-03-14T10:09:19;18.00;54.40
2749;DHT22;1382;52.142;11.618;2023-03-14T10:11:46;18.10;54.60
2749;DHT22;1382;52.142;11.618;2023-03-14T10:14:28;18.10;54.50
2749;DHT22;1382;52.142;11.618;2023-03-14T10:17:04;18.20;52.10
2749;DHT22;1382;52.142;11.618;2023-03-14T10:19:32;18.10;52.90
2749;DHT22;1382;52.142;11.618;2023-03-14T10:22:01;18.00;52.90
2749;DHT22;1382;52.142;11.618;2023-03-14T10:24:31;18.10;54.20
2749;DHT22;1382;52.142;11.618;2023-03-14T10:27:00;18.10;53.20
2749;DHT22;1382;52.142;11.618;2023-03-14T10:29:54;18.10;53.60
2749;DHT22;1382;52.142;11.618;2023-03-14T10:32:29;18.20;53.40
2749;DHT22;1382;52.142;11.618;2023-03-14T10:35:18;18.00;53.60
2749;DHT22;1382;52.142;11.618;2023-03-14T10:37:53;18.10;54.50
2749;DHT22;1382;52.142;11.618;2023-03-14T10:40:27;18.10;53.50
2749;DHT22;1382;52.142;11.618;2023-03-14T10:42:54;18.20;53.40
2749;DHT22;1382;52.142;11.618;2023-03-14T10:45:28;18.30;54.10
2749;DHT22;1382;52.142;11.618;2023-03-14T10:47:58;18.20;54.50
2749;DHT22;1382;52.142;11.618;2023-03-14T10:50:27;18.20;54.50
2749;DHT22;1382;52.142;11.618;2023-03-14T10:52:55;18.20;53.90
2749;DHT22;1382;52.142;11.618;2023-03-14T10:55:40;18.30;51.60
2749;DHT22;1382;52.142;11.618;2023-03-14T10:58:20;18.30;52.40
2749;DHT22;1382;52.142;11.618;2023-03-14T11:00:56;18.20;52.80
2749;DHT22;1382;52.142;11.618;2023-03-14T11:03:26;18.20;53.00
2749;DHT22;1382;52.142;11.618;2023-03-14T11:05:58;18.20;52.30
2749;DHT22;1382;52.142;11.618;2023-03-14T11:08:31;18.30;52.60
2749;DHT22;1382;52.142;11.618;2023-03-14T11:11:10;18.30;51.90
2749;DHT22;1382;52.142;11.618;2023-03-14T11:13:45;18.20;52.40
2749;DHT22;1382;52.142;11.618;2023-03-14T11:16:21;18.20;53.10
2749;DHT22;1382;52.142;11.618;2023-03-14T11:19:00;18.30;52.40
2749;DHT22;1382;52.142;11.618;2023-03-14T11:21:32;18.30;52.90
2749;DHT22;1382;52.142;11.618;2023-03-14T11:24:10;18.40;53.60
2749;DHT22;1382;52.142;11.618;2023-03-14T11:26:46;18.30;52.80
2749;DHT22;1382;52.142;11.618;2023-03-14T11:29:21;18.30;54.00
2749;DHT22;1382;52.142;11.618;2023-03-14T11:31:49;18.30;54.90
2749;DHT22;1382;52.142;11.618;2023-03-14T11:34:24;18.20;54.50
2749;DHT22;1382;52.142;11.618;2023-03-14T11:36:59;18.50;53.30
2749;DHT22;1382;52.142;11.618;2023-03-14T11:39:36;18.40;53.50
2749;DHT22;1382;52.142;11.618;2023-03-14T11:42:10;18.50;54.30
2749;DHT22;1382;52.142;11.618;2023-03-14T11:44:38;18.50;53.80
2749;DHT22;1382;52.142;11.618;2023-03-14T11:47:08;18.50;54.20
2749;DHT22;1382;52.142;11.618;2023-03-14T11:49:40;18.50;54.10
2749;DHT22;1382;52.142;11.618;2023-03-14T11:52:12;18.60;54.00
2749;DHT22;1382;52.142;11.618;2023-03-14T11:54:43;18.60;52.70
2749;DHT22;1382;52.142;11.618;2023-03-14T11:57:14;18.60;50.90
2749;DHT22;1382;52.142;11.618;2023-03-14T11:59:47;18.70;51.60
2749;DHT22;1382;52.142;11.618;2023-03-14T12:02:22;18.70;52.10
2749;DHT22;1382;52.142;11.618;2023-03-14T12:05:15;18.70;53.40
2749;DHT22;1382;52.142;11.618;2023-03-14T12:07:54;18.70;53.60
2749;DHT22;1382;52.142;11.618;2023-03-14T12:10:29;18.70;52.20
2749;DHT22;1382;52.142;11.618;2023-03-14T12:13:00;18.90;53.50
2749;DHT22;1382;52.142;11.618;2023-03-14T12:15:39;18.80;53.30
2749;DHT22;1382;52.142;11.618;2023-03-14T12:18:18;19.00;53.40
2749;DHT22;1382;52.142;11.618;2023-03-14T12:21:15;19.00;53.40
2749;DHT22;1382;52.142;11.618;2023-03-14T12:23:44;19.20;52.60
2749;DHT22;1382;52.142;11.618;2023-03-14T12:26:19;19.10;53.50
2749;DHT22;1382;52.142;11.618;2023-03-14T12:29:14;19.10;53.80
2749;DHT22;1382;52.142;11.618;2023-03-14T12:31:46;19.40;54.70
2749;DHT22;1382;52.142;11.618;2023-03-14T12:34:30;19.20;54.10
2749;DHT22;1382;52.142;11.618;2023-03-14T12:37:04;19.30;52.10
2749;DHT22;1382;52.142;11.618;2023-03-14T12:39:43;19.30;53.70
2749;DHT22;1382;52.142;11.618;2023-03-14T12:42:14;19.30;53.50
2749;DHT22;1382;52.142;11.618;2023-03-14T12:44:47;19.40;53.60
2749;DHT22;1382;52.142;11.618;2023-03-14T12:47:42;19.40;53.10
2749;DHT22;1382;52.142;11.618;2023-03-14T12:50:20;19.40;53.10
2749;DHT22;1382;52.142;11.618;2023-03-14T12:56:09;19.40;52.90
2749;DHT22;1382;52.142;11.618;2023-03-14T12:58:39;19.30;53.40
2749;DHT22;1382;52.142;11.618;2023-03-14T13:01:18;19.30;53.20
2749;DHT22;1382;52.142;11.618;2023-03-14T13:03:47;19.30;54.10
2749;DHT22;1382;52.142;11.618;2023-03-14T13:06:47;19.30;53.10
2749;DHT22;1382;52.142;11.618;2023-03-14T13:09:36;19.30;53.50
2749;DHT22;1382;52.142;11.618;2023-03-14T13:12:17;19.30;53.00
2749;DHT22;1382;52.142;11.618;2023-03-14T13:14:45;19.10;54.20
2749;DHT22;1382;52.142;11.618;2023-03-14T13:17:19;19.10;54.80
2749;DHT22;1382;52.142;11.618;2023-03-14T13:20:05;19.10;54.30
2749;DHT22;1382;52.142;11.618;2023-03-14T13:22:36;19.20;53.70
2749;DHT22;1382;52.142;11.618;2023-03-14T13:25:05;19.10;54.40
2749;DHT22;1382;52.142;11.618;2023-03-14T13:27:34;19.10;54.70
2749;DHT22;1382;52.142;11.618;2023-03-14T13:30:13;19.10;54.80
2749;DHT22;1382;52.142;11.618;2023-03-14T13:32:43;19.00;54.30
2749;DHT22;1382;52.142;11.618;2023-03-14T13:35:19;19.00;54.40
2749;DHT22;1382;52.142;11.618;2023-03-14T13:37:46;19.00;54.50
2749;DHT22;1382;52.142;11.618;2023-03-14T13:40:20;18.90;55.10
2749;DHT22;1382;52.142;11.618;2023-03-14T13:42:47;18.80;54.20
2749;DHT22;1382;52.142;11.618;2023-03-14T13:45:16;18.70;51.60
2749;DHT22;1382;52.142;11.618;2023-03-14T13:47:47;18.20;51.00
2749;DHT22;1382;52.142;11.618;2023-03-14T13:50:18;18.00;53.10
2749;DHT22;1382;52.142;11.618;2023-03-14T13:52:44;17.40;52.20
2749;DHT22;1382;52.142;11.618;2023-03-14T13:55:15;17.20;51.20
2749;DHT22;1382;52.142;11.618;2023-03-14T13:57:43;16.80;52.40
2749;DHT22;1382;52.142;11.618;2023-03-14T14:00:18;16.40;52.60
2749;DHT22;1382;52.142;11.618;2023-03-14T14:02:48;16.20;53.80
2749;DHT22;1382;52.142;11.618;2023-03-14T14:05:15;15.70;54.10
2749;DHT22;1382;52.142;11.618;2023-03-14T14:07:43;15.70;54.50
2749;DHT22;1382;52.142;11.618;2023-03-14T14:10:11;15.40;55.50
2749;DHT22;1382;52.142;11.618;2023-03-14T14:12:41;15.20;56.20
2749;DHT22;1382;52.142;11.618;2023-03-14T14:15:11;15.10;54.00
2749;DHT22;1382;52.142;11.618;2023-03-14T14:17:42;14.80;52.80
2749;DHT22;1382;52.142;11.618;2023-03-14T14:20:19;14.50;54.00
2749;DHT22;1382;52.142;11.618;2023-03-14T14:22:47;14.30;55.10
2749;DHT22;1382;52.142;11.618;2023-03-14T14:25:15;14.20;54.60
2749;DHT22;1382;52.142;11.618;2023-03-14T14:27:44;14.00;53.50
2749;DHT22;1382;52.142;11.618;2023-03-14T14:30:28;13.80;52.80
2749;DHT22;1382;52.142;11.618;2023-03-14T14:33:11;13.50;52.40
2749;DHT22;1382;52.142;11.618;2023-03-14T14:35:39;13.20;51.90
2749;DHT22;1382;52.142;11.618;2023-03-14T14:38:12;12.90;52.70
2749;DHT22;1382;52.142;11.618;2023-03-14T14:40:44;12.70;52.80
2749;DHT22;1382;52.142;11.618;2023-03-14T14:43:15;12.50;53.10
2749;DHT22;1382;52.142;11.618;2023-03-14T14:45:43;12.30;54.10
2749;DHT22;1382;52.142;11.618;2023-03-14T14:48:22;12.20;54.40
2749;DHT22;1382;52.142;11.618;2023-03-14T14:51:00;12.10;53.40
2749;DHT22;1382;52.142;11.618;2023-03-14T14:53:29;12.00;54.20
2749;DHT22;1382;52.142;11.618;2023-03-14T14:55:59;11.80;54.00
2749;DHT22;1382;52.142;11.618;2023-03-14T14:58:27;11.70;55.10
2749;DHT22;1382;52.142;11.618;2023-03-14T15:00:57;11.60;55.40
2749;DHT22;1382;52.142;11.618;2023-03-14T15:03:27;11.60;55.70
2749;DHT22;1382;52.142;11.618;2023-03-14T15:05:54;11.50;55.60
2749;DHT22;1382;52.142;11.618;2023-03-14T15:08:24;11.40;55.80
2749;DHT22;1382;52.142;11.618;2023-03-14T15:10:52;11.30;55.40
2749;DHT22;1382;52.142;11.618;2023-03-14T15:13:19;11.20;55.40
2749;DHT22;1382;52.142;11.618;2023-03-14T15:15:46;11.10;56.10
2749;DHT22;1382;52.142;11.618;2023-03-14T15:18:16;11.10;55.90
2749;DHT22;1382;52.142;11.618;2023-03-14T15:20:43;11.00;55.60
2749;DHT22;1382;52.142;11.618;2023-03-14T15:23:11;10.80;55.60
2749;DHT22;1382;52.142;11.618;2023-03-14T15:25:39;10.80;55.80
2749;DHT22;1382;52.142;11.618;2023-03-14T15:28:22;10.70;56.60
2749;DHT22;1382;52.142;11.618;2023-03-14T15:30:51;10.80;56.40
2749;DHT22;1382;52.142;11.618;2023-03-14T15:33:18;10.80;55.30
2749;DHT22;1382;52.142;11.618;2023-03-14T15:35:45;10.80;55.00
2749;DHT22;1382;52.142;11.618;2023-03-14T15:38:14;10.70;54.40
2749;DHT22;1382;52.142;11.618;2023-03-14T15:40:42;10.60;55.10
2749;DHT22;1382;52.142;11.618;2023-03-14T15:43:09;10.60;55.30
2749;DHT22;1382;52.142;11.618;2023-03-14T15:45:36;10.50;54.80
2749;DHT22;1382;52.142;11.618;2023-03-14T15:48:03;10.50;55.30
2749;DHT22;1382;52.142;11.618;2023-03-14T15:50:30;10.40;55.00
2749;DHT22;1382;52.142;11.618;2023-03-14T15:52:57;10.40;55.90
2749;DHT22;1382;52.142;11.618;2023-03-14T15:55:24;10.40;55.90
2749;DHT22;1382;52.142;11.618;2023-03-14T15:57:52;10.40;55.50
2749;DHT22;1382;52.142;11.618;2023-03-14T16:00:20;10.50;56.20
2749;DHT22;1382;52.142;11.618;2023-03-14T16:02:47;10.50;56.30